createdAt,value
2023-09-21T00:01:07.902Z,88.92
2023-09-21T00:03:38.680Z,90.68
2023-09-21T00:06:06.450Z,86.45
2023-09-21T00:08:34.017Z,89.76
2023-09-21T00:11:02.255Z,90.42
2023-09-21T00:13:30.212Z,89.88
2023-09-21T00:16:03.515Z,90.57
2023-09-21T00:18:30.880Z,90.81
2023-09-21T00:21:02.111Z,90.34
2023-09-21T00:23:29.003Z,89.05
2023-09-21T00:26:01.381Z,87.71
2023-09-21T00:28:29.392Z,90.32
2023-09-21T00:30:58.785Z,90.31
2023-09-21T00:33:34.267Z,91.77
2023-09-21T00:36:01.614Z,91.21
2023-09-21T00:38:28.625Z,91.79
2023-09-21T00:41:00.023Z,89.87
2023-09-21T00:43:26.718Z,92.04
2023-09-21T00:45:55.647Z,95.59
2023-09-21T00:48:27.046Z,95.51
2023-09-21T00:50:56.031Z,97.01
2023-09-21T00:53:23.796Z,98.97
2023-09-21T00:55:59.580Z,95.92
2023-09-21T00:58:26.963Z,92.64
2023-09-21T01:00:55.914Z,91.51
2023-09-21T01:03:24.258Z,91.25
2023-09-21T01:05:51.568Z,91.08
2023-09-21T01:08:21.305Z,91.95
2023-09-21T01:10:50.880Z,91.56
2023-09-21T01:13:19.668Z,91.18
2023-09-21T01:16:12.288Z,96.54
2023-09-21T01:18:43.189Z,98.33
2023-09-21T01:21:11.531Z,99.17
2023-09-21T01:23:47.100Z,99.69
2023-09-21T01:26:17.805Z,99.69
2023-09-21T01:28:47.363Z,99.09
2023-09-21T01:31:14.600Z,98.45
2023-09-21T01:33:43.383Z,98.56
2023-09-21T01:36:12.139Z,97.60
2023-09-21T01:38:47.149Z,96.80
2023-09-21T01:41:16.045Z,94.63
2023-09-21T01:43:43.116Z,93.29
2023-09-21T01:46:10.463Z,92.71
2023-09-21T01:48:38.192Z,92.71
2023-09-21T01:51:06.825Z,92.49
2023-09-21T01:53:34.071Z,91.84
2023-09-21T01:56:01.083Z,92.26
2023-09-21T01:58:27.695Z,92.67
2023-09-21T02:00:54.364Z,92.16
2023-09-21T02:03:29.555Z,92.21
2023-09-21T02:05:59.533Z,91.65
2023-09-21T02:08:27.252Z,91.54
2023-09-21T02:10:54.147Z,91.62
2023-09-21T02:13:21.723Z,92.53
2023-09-21T02:15:52.491Z,92.59
2023-09-21T02:18:20.492Z,92.51
2023-09-21T02:20:53.791Z,92.74
2023-09-21T02:23:23.226Z,94.25
2023-09-21T02:25:50.162Z,92.78
2023-09-21T02:28:16.986Z,93.94
2023-09-21T02:30:48.745Z,99.06
2023-09-21T02:33:19.171Z,100.00
2023-09-21T02:35:48.781Z,100.00
2023-09-21T02:38:18.280Z,100.00
2023-09-21T02:40:44.860Z,100.00
2023-09-21T02:43:11.406Z,97.52
2023-09-21T02:45:38.352Z,96.37
2023-09-21T02:48:06.556Z,95.73
2023-09-21T02:50:33.614Z,96.26
2023-09-21T02:53:11.895Z,95.46
2023-09-21T02:55:40.157Z,95.34
2023-09-21T02:58:12.265Z,94.63
2023-09-21T03:00:46.741Z,95.28
2023-09-21T03:03:16.434Z,98.60
2023-09-21T03:05:49.571Z,100.00
2023-09-21T03:08:17.876Z,100.00
2023-09-21T03:10:46.510Z,100.00
2023-09-21T03:13:20.596Z,98.08
2023-09-21T03:15:49.845Z,96.45
2023-09-21T03:18:17.988Z,95.49
2023-09-21T03:20:45.741Z,95.81
2023-09-21T03:23:14.542Z,95.29
2023-09-21T03:25:44.312Z,95.20
2023-09-21T03:28:16.776Z,97.29
2023-09-21T03:30:45.095Z,98.36
2023-09-21T03:33:12.545Z,97.70
2023-09-21T03:35:39.745Z,97.74
2023-09-21T03:38:07.573Z,98.46
2023-09-21T03:40:34.899Z,98.27
2023-09-21T03:43:02.109Z,97.09
2023-09-21T03:45:28.752Z,98.64
2023-09-21T03:47:56.602Z,98.62
2023-09-21T03:50:26.685Z,99.24
2023-09-21T03:52:56.181Z,99.25
2023-09-21T03:55:23.278Z,98.92
2023-09-21T03:57:49.911Z,99.11
2023-09-21T04:00:27.520Z,98.51
2023-09-21T04:02:55.165Z,97.93
2023-09-21T04:05:25.785Z,97.46
2023-09-21T04:07:52.919Z,97.93
2023-09-21T04:10:19.546Z,97.92
2023-09-21T04:12:46.105Z,97.38
2023-09-21T04:15:13.261Z,97.67
2023-09-21T04:17:43.390Z,97.98
2023-09-21T04:20:14.322Z,97.21
2023-09-21T04:22:42.438Z,98.46
2023-09-21T04:25:11.180Z,97.56
2023-09-21T04:27:40.297Z,97.99
2023-09-21T04:30:09.637Z,97.49
2023-09-21T04:32:40.133Z,98.86
2023-09-21T04:35:07.471Z,99.37
2023-09-21T04:37:35.409Z,99.28
2023-09-21T04:40:12.976Z,99.99
2023-09-21T04:42:41.321Z,100.00
2023-09-21T04:45:12.473Z,100.00
2023-09-21T04:47:50.816Z,100.00
2023-09-21T04:50:18.748Z,100.00
2023-09-21T04:52:46.650Z,100.00
2023-09-21T04:55:17.237Z,100.00
2023-09-21T04:57:44.942Z,99.65
2023-09-21T05:00:17.411Z,98.31
2023-09-21T05:02:45.002Z,97.52
2023-09-21T05:05:12.564Z,97.52
2023-09-21T05:07:39.252Z,97.25
2023-09-21T05:10:08.322Z,96.85
2023-09-21T05:12:35.631Z,96.38
2023-09-21T05:17:34.604Z,95.85
2023-09-21T05:20:01.255Z,95.76
2023-09-21T05:22:27.835Z,95.90
2023-09-21T05:24:54.413Z,95.84
2023-09-21T05:27:22.455Z,95.62
2023-09-21T05:29:49.170Z,95.53
2023-09-21T05:32:16.435Z,95.75
2023-09-21T05:34:43.234Z,95.30
2023-09-21T05:37:09.939Z,94.88
2023-09-21T05:39:37.007Z,94.65
2023-09-21T05:42:05.622Z,93.80
2023-09-21T05:44:32.244Z,92.95
2023-09-21T05:46:58.820Z,92.85
2023-09-21T05:49:25.400Z,92.12
2023-09-21T05:51:57.492Z,91.85
2023-09-21T05:54:25.286Z,91.29
2023-09-21T05:56:53.276Z,91.15
2023-09-21T05:59:20.515Z,91.30
2023-09-21T06:01:47.321Z,91.01
2023-09-21T06:04:14.084Z,90.12
2023-09-21T06:06:40.760Z,89.36
2023-09-21T06:09:09.066Z,88.63
2023-09-21T06:11:35.643Z,88.54
2023-09-21T06:14:03.681Z,88.73
2023-09-21T06:16:30.462Z,89.35
2023-09-21T06:18:57.134Z,89.81
2023-09-21T06:21:23.815Z,89.97
2023-09-21T06:23:51.746Z,90.08
2023-09-21T06:26:19.856Z,89.34
2023-09-21T06:28:49.928Z,88.49
2023-09-21T06:31:17.613Z,87.77
2023-09-21T06:33:44.281Z,87.17
2023-09-21T06:36:21.656Z,86.19
2023-09-21T06:38:48.785Z,85.78
2023-09-21T06:41:15.776Z,85.30
2023-09-21T06:43:45.781Z,84.93
2023-09-21T06:46:13.609Z,84.52
2023-09-21T06:48:43.280Z,83.80
2023-09-21T06:51:10.176Z,82.71
2023-09-21T06:53:37.508Z,82.44
2023-09-21T06:56:05.085Z,81.96
2023-09-21T06:58:36.684Z,81.13
2023-09-21T07:01:06.500Z,80.68
2023-09-21T07:03:36.109Z,80.27
2023-09-21T07:06:03.021Z,79.64
2023-09-21T07:08:29.681Z,79.11
2023-09-21T07:10:56.516Z,78.61
2023-09-21T07:13:23.110Z,78.60
2023-09-21T07:15:50.129Z,78.19
2023-09-21T07:18:17.534Z,78.21
2023-09-21T07:20:44.579Z,76.98
2023-09-21T07:23:11.444Z,76.28
2023-09-21T07:25:38.708Z,74.86
2023-09-21T07:28:06.023Z,74.40
2023-09-21T07:30:34.642Z,74.70
2023-09-21T07:33:02.243Z,74.44
2023-09-21T07:35:29.688Z,73.96
2023-09-21T07:37:57.113Z,73.84
2023-09-21T07:40:24.501Z,73.65
2023-09-21T07:42:52.400Z,72.86
2023-09-21T07:45:20.845Z,72.80
2023-09-21T07:47:48.098Z,71.68
2023-09-21T07:50:14.965Z,70.97
2023-09-21T07:52:41.609Z,70.02
2023-09-21T07:55:10.049Z,69.76
2023-09-21T07:57:41.129Z,68.46
2023-09-21T08:00:11.896Z,68.34
2023-09-21T08:02:38.562Z,67.01
2023-09-21T08:05:11.341Z,66.46
2023-09-21T08:07:38.381Z,65.97
2023-09-21T08:10:06.109Z,64.94
2023-09-21T08:12:32.962Z,62.46
2023-09-21T08:15:01.111Z,62.47
2023-09-21T08:17:31.651Z,62.35
2023-09-21T08:19:58.469Z,61.37
2023-09-21T08:22:27.779Z,61.01
2023-09-21T08:24:54.599Z,60.97
2023-09-21T08:27:23.745Z,60.40
2023-09-21T08:29:51.320Z,59.72
2023-09-21T08:32:18.646Z,59.59
2023-09-21T08:34:45.481Z,59.11
2023-09-21T08:37:12.414Z,58.65
2023-09-21T08:39:39.378Z,58.33
2023-09-21T08:42:06.416Z,58.13
2023-09-21T08:44:33.596Z,57.28
2023-09-21T08:47:01.210Z,57.42
2023-09-21T08:49:28.425Z,57.95
2023-09-21T08:51:57.976Z,58.56
2023-09-21T08:54:25.189Z,58.13
2023-09-21T08:56:57.147Z,57.04
2023-09-21T08:59:25.935Z,56.44
2023-09-21T09:01:53.093Z,55.69
2023-09-21T09:04:21.227Z,54.68
2023-09-21T09:06:48.826Z,54.21
2023-09-21T09:09:17.248Z,53.88
2023-09-21T09:11:46.357Z,53.64
2023-09-21T09:14:15.686Z,53.24
2023-09-21T09:16:42.750Z,52.25
2023-09-21T09:19:10.672Z,52.86
2023-09-21T09:21:37.943Z,53.62
2023-09-21T09:24:05.997Z,53.06
2023-09-21T09:26:32.679Z,53.73
2023-09-21T09:29:15.254Z,54.97
2023-09-21T09:31:43.277Z,55.07
2023-09-21T09:34:13.607Z,55.50
2023-09-21T09:36:42.522Z,56.01
2023-09-21T09:39:09.701Z,55.74
2023-09-21T09:41:36.942Z,55.04
2023-09-21T09:44:07.734Z,54.10
2023-09-21T09:46:36.715Z,53.77
2023-09-21T09:49:04.340Z,53.38
2023-09-21T09:51:46.691Z,53.25
2023-09-21T09:54:14.352Z,53.28
2023-09-21T09:56:44.407Z,53.01
2023-09-21T09:59:12.906Z,52.77
2023-09-21T10:01:40.644Z,52.84
2023-09-21T10:04:08.763Z,52.47
2023-09-21T10:06:37.897Z,52.67
2023-09-21T10:09:10.348Z,52.49
2023-09-21T10:11:40.790Z,52.07
2023-09-21T10:14:08.493Z,51.91
2023-09-21T10:16:40.218Z,52.10
2023-09-21T10:19:17.385Z,50.35
2023-09-21T10:21:46.847Z,51.12
2023-09-21T10:24:13.574Z,50.71
2023-09-21T10:26:45.219Z,51.09
2023-09-21T10:29:13.635Z,51.41
2023-09-21T10:31:45.101Z,50.72
2023-09-21T10:34:20.336Z,49.96
2023-09-21T10:36:53.473Z,49.48
2023-09-21T10:39:41.364Z,49.01
2023-09-21T10:42:08.184Z,49.24
2023-09-21T10:44:53.855Z,48.83
2023-09-21T10:47:51.157Z,47.00
2023-09-21T10:50:24.436Z,48.41
2023-09-21T10:52:53.060Z,47.79
2023-09-21T10:55:22.115Z,47.48
2023-09-21T10:57:50.778Z,47.07
2023-09-21T11:00:19.244Z,47.31
2023-09-21T11:02:51.115Z,47.07
2023-09-21T11:05:20.409Z,46.13
2023-09-21T11:07:49.190Z,46.39
2023-09-21T11:10:17.842Z,45.94
2023-09-21T11:12:46.431Z,45.72
2023-09-21T11:15:15.403Z,45.59
2023-09-21T11:17:44.409Z,46.04
2023-09-21T11:20:16.584Z,46.90
2023-09-21T11:22:49.453Z,47.15
2023-09-21T11:25:18.480Z,46.67
2023-09-21T11:27:45.235Z,47.37
2023-09-21T11:30:14.441Z,47.22
2023-09-21T11:32:47.672Z,46.47
2023-09-21T11:35:18.685Z,46.35
2023-09-21T11:37:47.644Z,46.57
2023-09-21T11:40:15.874Z,45.56
2023-09-21T11:42:47.215Z,44.77
2023-09-21T11:45:17.699Z,44.28
2023-09-21T11:47:56.518Z,44.06
2023-09-21T11:50:33.156Z,41.49
2023-09-21T11:53:00.326Z,41.89
2023-09-21T11:55:31.075Z,41.85
2023-09-21T11:58:08.752Z,40.49
2023-09-21T12:00:49.096Z,39.71
2023-09-21T12:03:19.396Z,40.86
2023-09-21T12:05:46.446Z,40.58
2023-09-21T12:08:17.878Z,40.23
2023-09-21T12:10:48.607Z,39.67
2023-09-21T12:13:15.834Z,39.94
2023-09-21T12:15:43.233Z,39.90
2023-09-21T12:18:15.903Z,39.20
2023-09-21T12:20:46.320Z,39.26
2023-09-21T12:23:13.892Z,39.26
2023-09-21T12:25:41.217Z,39.50
2023-09-21T12:28:10.306Z,39.03
2023-09-21T12:30:39.203Z,39.58
2023-09-21T12:33:07.775Z,39.67
2023-09-21T12:35:34.892Z,39.98
2023-09-21T12:38:01.509Z,39.45
2023-09-21T12:40:28.716Z,39.42
2023-09-21T12:42:55.885Z,39.83
2023-09-21T12:45:22.733Z,39.73
2023-09-21T12:47:49.563Z,39.89
2023-09-21T12:50:17.476Z,40.33
2023-09-21T12:52:44.669Z,40.15
2023-09-21T12:55:12.041Z,39.94
2023-09-21T12:57:42.140Z,39.95
2023-09-21T13:00:20.182Z,40.10
2023-09-21T13:02:47.463Z,40.38
2023-09-21T13:05:14.623Z,40.12
2023-09-21T13:07:45.575Z,40.47
2023-09-21T13:10:16.098Z,40.58
2023-09-21T13:12:43.468Z,40.15
2023-09-21T13:15:10.507Z,40.50
2023-09-21T13:17:38.047Z,40.97
2023-09-21T13:20:06.008Z,40.70
2023-09-21T13:22:36.185Z,40.61
2023-09-21T13:25:03.154Z,41.17
2023-09-21T13:27:32.616Z,41.13
2023-09-21T13:29:59.148Z,40.98
2023-09-21T13:32:26.626Z,40.91
2023-09-21T13:34:55.430Z,40.77
2023-09-21T13:37:22.159Z,41.21
2023-09-21T13:39:49.328Z,41.11
2023-09-21T13:42:16.295Z,41.35
2023-09-21T13:44:42.904Z,40.95
2023-09-21T13:47:09.540Z,40.82
2023-09-21T13:49:36.482Z,41.08
2023-09-21T13:52:03.951Z,41.45
2023-09-21T13:54:31.238Z,41.66
2023-09-21T13:56:57.920Z,41.16
2023-09-21T13:59:24.583Z,41.82
2023-09-21T14:01:51.357Z,41.36
2023-09-21T14:04:18.314Z,41.61
2023-09-21T14:06:45.248Z,41.38
2023-09-21T14:09:11.980Z,41.45
2023-09-21T14:11:38.625Z,41.65
2023-09-21T14:14:06.177Z,42.29
2023-09-21T14:16:32.975Z,42.55
2023-09-21T14:18:59.703Z,42.35
2023-09-21T14:21:27.328Z,42.42
2023-09-21T14:23:53.971Z,42.52
2023-09-21T14:26:20.834Z,42.73
2023-09-21T14:28:47.538Z,42.52
2023-09-21T14:31:14.351Z,42.47
2023-09-21T14:33:41.141Z,42.24
2023-09-21T14:36:09.829Z,42.39
2023-09-21T14:38:36.576Z,42.09
2023-09-21T14:41:03.957Z,42.08
2023-09-21T14:43:30.561Z,42.45
2023-09-21T14:45:57.234Z,43.10
2023-09-21T14:48:24.219Z,42.82
2023-09-21T14:50:50.822Z,42.95
2023-09-21T14:53:17.417Z,42.78
2023-09-21T14:55:44.243Z,42.41
2023-09-21T14:58:11.902Z,42.69
2023-09-21T15:00:39.422Z,42.84
2023-09-21T15:03:06.295Z,42.95
2023-09-21T15:05:32.998Z,43.02
2023-09-21T15:08:12.757Z,43.40
2023-09-21T15:10:40.498Z,42.96
2023-09-21T15:13:07.128Z,43.22
2023-09-21T15:15:33.770Z,43.65
2023-09-21T15:18:00.632Z,43.61
2023-09-21T15:20:28.178Z,43.37
2023-09-21T15:22:55.072Z,43.22
2023-09-21T15:25:22.021Z,43.41
2023-09-21T15:27:48.622Z,44.00
2023-09-21T15:30:15.953Z,43.42
2023-09-21T15:32:43.025Z,43.91
2023-09-21T15:35:12.544Z,43.50
2023-09-21T15:37:39.071Z,43.72
2023-09-21T15:40:06.379Z,44.02
2023-09-21T15:42:33.255Z,43.77
2023-09-21T15:45:00.122Z,44.16
2023-09-21T15:47:26.992Z,44.32
2023-09-21T15:49:53.862Z,44.40
2023-09-21T15:52:20.591Z,44.66
2023-09-21T15:54:47.595Z,44.57
2023-09-21T15:57:14.566Z,44.79
2023-09-21T15:59:41.875Z,44.80
2023-09-21T16:02:10.511Z,45.10
2023-09-21T16:04:37.827Z,45.37
2023-09-21T16:07:05.177Z,45.80
2023-09-21T16:09:31.948Z,46.32
2023-09-21T16:11:58.765Z,46.75
2023-09-21T16:14:25.630Z,47.00
2023-09-21T16:16:52.453Z,47.57
2023-09-21T16:19:19.246Z,47.60
2023-09-21T16:21:45.890Z,48.04
2023-09-21T16:24:13.052Z,47.84
2023-09-21T16:26:39.804Z,48.27
2023-09-21T16:29:07.222Z,48.27
2023-09-21T16:31:34.049Z,48.58
2023-09-21T16:34:00.746Z,49.00
2023-09-21T16:36:27.545Z,49.00
2023-09-21T16:38:54.401Z,49.21
2023-09-21T16:41:21.363Z,49.22
2023-09-21T16:43:48.377Z,49.54
2023-09-21T16:46:39.587Z,49.44
2023-09-21T16:49:03.155Z,50.02
2023-09-21T16:51:29.792Z,49.84
2023-09-21T16:53:59.188Z,50.18
2023-09-21T16:56:25.815Z,50.39
2023-09-21T16:58:54.144Z,50.75
2023-09-21T17:01:20.887Z,50.79
2023-09-21T17:03:47.752Z,51.43
2023-09-21T17:06:14.765Z,51.12
2023-09-21T17:08:41.408Z,51.37
2023-09-21T17:11:08.018Z,52.02
2023-09-21T17:13:34.615Z,52.24
2023-09-21T17:16:01.263Z,52.55
2023-09-21T17:18:27.930Z,52.92
2023-09-21T17:20:54.640Z,52.94
2023-09-21T17:23:21.228Z,53.09
2023-09-21T17:25:48.699Z,53.14
2023-09-21T17:28:15.444Z,53.55
2023-09-21T17:30:42.457Z,53.86
2023-09-21T17:33:09.218Z,54.22
2023-09-21T17:35:37.286Z,54.34
2023-09-21T17:38:04.205Z,54.62
2023-09-21T17:40:30.933Z,54.86
2023-09-21T17:42:57.511Z,54.98
2023-09-21T17:45:24.137Z,55.01
2023-09-21T17:47:50.979Z,55.15
2023-09-21T17:50:18.063Z,55.30
2023-09-21T17:52:44.758Z,55.35
2023-09-21T17:55:12.077Z,55.53
2023-09-21T17:57:38.867Z,55.49
2023-09-21T18:00:07.483Z,55.56
2023-09-21T18:02:37.368Z,55.89
2023-09-21T18:05:05.180Z,56.05
2023-09-21T18:07:32.326Z,56.04
2023-09-21T18:09:58.885Z,56.06
2023-09-21T18:12:25.964Z,56.03
2023-09-21T18:14:52.611Z,56.09
2023-09-21T18:17:19.209Z,55.79
2023-09-21T18:19:45.775Z,55.82
2023-09-21T18:22:13.438Z,55.95
2023-09-21T18:24:40.139Z,55.97
2023-09-21T18:27:06.846Z,55.99
2023-09-21T18:29:34.064Z,56.24
2023-09-21T18:32:01.625Z,56.17
2023-09-21T18:34:28.408Z,56.08
2023-09-21T18:36:54.983Z,56.07
2023-09-21T18:39:21.638Z,56.14
2023-09-21T18:41:48.755Z,56.46
2023-09-21T18:44:15.323Z,56.27
2023-09-21T18:46:42.568Z,56.36
2023-09-21T18:49:09.286Z,56.75
2023-09-21T18:51:36.031Z,56.89
2023-09-21T18:54:02.750Z,56.86
2023-09-21T18:56:29.640Z,56.96
2023-09-21T18:58:57.634Z,56.95
2023-09-21T19:01:25.243Z,57.10
2023-09-21T19:03:54.883Z,56.89
2023-09-21T19:06:25.423Z,57.27
2023-09-21T19:08:52.852Z,57.37
2023-09-21T19:11:20.579Z,57.73
2023-09-21T19:13:47.650Z,57.48
2023-09-21T19:16:14.737Z,57.47
2023-09-21T19:18:41.776Z,57.47
2023-09-21T19:21:09.719Z,57.52
2023-09-21T19:23:36.893Z,57.55
2023-09-21T19:26:04.800Z,57.90
2023-09-21T19:28:32.396Z,57.89
2023-09-21T19:31:00.656Z,57.89
2023-09-21T19:33:28.215Z,57.92
2023-09-21T19:35:55.637Z,57.87
2023-09-21T19:38:22.924Z,58.24
2023-09-21T19:40:49.666Z,58.55
2023-09-21T19:43:16.688Z,58.44
2023-09-21T19:45:43.482Z,58.83
2023-09-21T19:48:10.302Z,58.81
2023-09-21T19:50:37.409Z,58.78
2023-09-21T19:53:05.627Z,59.01
2023-09-21T19:55:32.556Z,59.10
2023-09-21T19:57:59.481Z,59.27
2023-09-21T20:00:26.627Z,59.46
2023-09-21T20:02:53.392Z,59.65
2023-09-21T20:05:20.431Z,59.97
2023-09-21T20:07:47.427Z,59.92
2023-09-21T20:10:14.112Z,60.15
2023-09-21T20:12:40.927Z,60.59
2023-09-21T20:15:09.978Z,60.68
2023-09-21T20:17:36.818Z,60.68
2023-09-21T20:20:03.779Z,61.34
2023-09-21T20:22:32.429Z,61.39
2023-09-21T20:24:59.102Z,61.30
2023-09-21T20:27:25.862Z,61.72
2023-09-21T20:29:52.533Z,62.14
2023-09-21T20:32:19.231Z,62.19
2023-09-21T20:34:45.794Z,62.40
2023-09-21T20:37:12.501Z,62.67
2023-09-21T20:39:39.109Z,62.79
2023-09-21T20:42:05.802Z,62.96
2023-09-21T20:44:33.869Z,63.07
2023-09-21T20:47:00.942Z,63.47
2023-09-21T20:49:28.975Z,63.14
2023-09-21T20:51:55.602Z,63.63
2023-09-21T20:54:23.843Z,64.04
2023-09-21T20:56:51.467Z,63.82
2023-09-21T20:59:18.090Z,64.00
2023-09-21T21:01:44.836Z,63.79
2023-09-21T21:04:12.150Z,64.01
2023-09-21T21:06:38.947Z,64.51
2023-09-21T21:09:06.528Z,64.48
2023-09-21T21:11:33.430Z,65.02
2023-09-21T21:14:00.748Z,64.79
2023-09-21T21:16:28.707Z,64.74
2023-09-21T21:18:55.394Z,64.92
2023-09-21T21:21:22.056Z,64.84
2023-09-21T21:23:48.656Z,65.07
2023-09-21T21:26:15.236Z,65.42
2023-09-21T21:28:42.123Z,65.40
2023-09-21T21:31:08.814Z,65.62
2023-09-21T21:33:35.468Z,65.79
2023-09-21T21:36:02.690Z,66.00
2023-09-21T21:38:29.286Z,66.13
2023-09-21T21:40:55.956Z,66.59
2023-09-21T21:43:22.609Z,66.61
2023-09-21T21:45:49.457Z,66.61
2023-09-21T21:48:16.191Z,66.59
2023-09-21T21:50:43.024Z,66.53
2023-09-21T21:53:09.629Z,66.79
2023-09-21T21:55:37.008Z,67.34
2023-09-21T21:58:03.745Z,67.47
2023-09-21T22:00:32.823Z,67.62
2023-09-21T22:02:59.972Z,67.93
2023-09-21T22:05:30.344Z,67.89
2023-09-21T22:07:58.348Z,67.99
2023-09-21T22:10:25.383Z,68.35
2023-09-21T22:12:53.868Z,68.30
2023-09-21T22:15:20.957Z,68.83
2023-09-21T22:17:47.781Z,68.61
2023-09-21T22:20:17.256Z,69.32
2023-09-21T22:22:47.199Z,69.75
2023-09-21T22:25:14.563Z,69.42
2023-09-21T22:27:41.381Z,69.35
2023-09-21T22:30:10.676Z,69.57
2023-09-21T22:32:38.316Z,69.79
2023-09-21T22:35:06.418Z,69.45
2023-09-21T22:37:35.556Z,69.72
2023-09-21T22:40:04.918Z,69.47
2023-09-21T22:42:46.568Z,69.50
2023-09-21T22:45:15.275Z,70.20
2023-09-21T22:47:43.884Z,69.61
2023-09-21T22:50:15.005Z,69.87
2023-09-21T22:52:44.268Z,69.69
2023-09-21T22:55:10.935Z,69.82
2023-09-21T22:57:37.560Z,70.28
2023-09-21T23:00:08.191Z,70.10
2023-09-21T23:02:34.755Z,70.64
2023-09-21T23:05:01.986Z,70.73
2023-09-21T23:07:28.690Z,70.66
2023-09-21T23:09:55.602Z,70.70
2023-09-21T23:12:22.143Z,71.18
2023-09-21T23:14:48.739Z,71.25
2023-09-21T23:17:16.029Z,71.26
2023-09-21T23:19:42.609Z,71.92
2023-09-21T23:22:09.175Z,71.90
2023-09-21T23:24:35.783Z,71.24
2023-09-21T23:27:05.714Z,70.85
2023-09-21T23:29:32.423Z,70.84
2023-09-21T23:31:58.949Z,71.36
2023-09-21T23:34:26.775Z,71.21
2023-09-21T23:36:53.579Z,71.44
2023-09-21T23:39:20.547Z,71.25
2023-09-21T23:41:47.112Z,71.03
2023-09-21T23:44:15.178Z,71.02
2023-09-21T23:46:42.251Z,71.89
2023-09-21T23:49:09.381Z,71.74
2023-09-21T23:51:36.045Z,71.69
2023-09-21T23:54:07.397Z,72.18
2023-09-21T23:56:34.008Z,71.87
2023-09-21T23:59:00.617Z,71.62
